Oshoto, Wyoming
Current Conditions -  °F | °C
As of 1:53 PM on Friday 28 Nov 2014 (Local Time) from KGCC Reporting Station
Few Clouds Few Clouds  
Wind Chill: 52°   Ceiling: Unl
Heat Index: 52°   Visibility: 10mi
Dew Point: 24°   Wind: 14mph
Humidity: 34%   Direction: 230°SW
Pressure: 29.61"   Gusts: NA
Location:  44.3253°N, 104.815°W
Report Text: KGCC 282053Z AUTO 23012KT 10SM FEW110 11/M04 A2961 RMK AO2 SLP013 T01111044 56019 TSNO
Loading
Personal Weather Stations






























Interactive Weather Map New forecast layout! Learn more

10-Day Weather Forecast

Advertisements
Track Severe Weather on mobile